Time;durP1;ratioP1;P1;durP2;ratioP2;P2;SDS_P1;SDS_P2;PMS_P1;PMS_P2;Temp;Humidity;BMP_temperature;BMP_pressure;BME280_temperature;BME280_humidity;BME280_pressure;Samples;Min_cycle;Max_cycle;Signal;HPM_P1;HPM_P2
2021/08/18 00:00:47;;;;;;;0.70;0.40;;;18.60;64.00;;;;;;5060059;28;20020;-79
2021/08/18 00:03:14;;;;;;;0.52;0.40;;;18.60;64.20;;;;;;5074905;28;20467;-79
2021/08/18 00:05:41;;;;;;;0.70;0.43;;;18.60;64.10;;;;;;5063431;28;20056;-79
2021/08/18 00:08:08;;;;;;;0.80;0.50;;;18.60;64.00;;;;;;5056377;28;20044;-78
2021/08/18 00:10:35;;;;;;;0.60;0.35;;;18.60;63.80;;;;;;5066924;28;20104;-79
2021/08/18 00:13:02;;;;;;;1.00;0.60;;;18.60;64.00;;;;;;5074897;28;20043;-79
2021/08/18 00:15:29;;;;;;;0.68;0.40;;;18.60;64.00;;;;;;5076166;28;20070;-76
2021/08/18 00:17:59;;;;;;;0.60;0.38;;;18.50;64.40;;;;;;5075968;28;20032;-79
2021/08/18 00:20:25;;;;;;;0.90;0.40;;;18.60;64.20;;;;;;5058056;28;20017;-80
2021/08/18 00:22:51;;;;;;;0.52;0.30;;;18.50;64.40;;;;;;5054736;28;20029;-79
2021/08/18 00:25:17;;;;;;;1.17;0.40;;;18.50;64.30;;;;;;5054401;28;20021;-79
2021/08/18 00:27:42;;;;;;;0.60;0.40;;;18.40;64.70;;;;;;5054406;28;20102;-79
2021/08/18 00:30:09;;;;;;;0.65;0.40;;;18.50;64.70;;;;;;5071328;28;20063;-79
2021/08/18 00:32:34;;;;;;;0.93;0.43;;;18.40;64.80;;;;;;5069724;28;20029;-79
2021/08/18 00:35:00;;;;;;;0.50;0.30;;;18.40;65.00;;;;;;5055839;28;20035;-79
2021/08/18 00:37:25;;;;;;;1.08;0.47;;;18.40;65.10;;;;;;5054186;28;20033;-80
2021/08/18 00:39:51;;;;;;;0.68;0.40;;;18.30;65.30;;;;;;5055685;28;20143;-79
2021/08/18 00:42:18;;;;;;;0.40;0.30;;;18.30;65.20;;;;;;5075438;28;20032;-79
2021/08/18 00:44:44;;;;;;;0.70;0.32;;;18.30;65.10;;;;;;5075144;28;20078;-79
2021/08/18 00:47:10;;;;;;;0.88;0.40;;;18.30;65.60;;;;;;5070188;28;20119;-79
2021/08/18 00:49:35;;;;;;;0.40;0.30;;;18.30;65.40;;;;;;5055575;28;20029;-79
2021/08/18 00:52:03;;;;;;;1.05;0.40;;;18.20;65.70;;;;;;5054112;28;20143;-79
2021/08/18 00:54:28;;;;;;;0.57;0.30;;;18.30;65.50;;;;;;5055064;28;20036;-79
2021/08/18 00:56:54;;;;;;;0.80;0.50;;;18.20;66.00;;;;;;5053794;28;20032;-79
2021/08/18 00:59:21;;;;;;;0.50;0.38;;;18.20;65.60;;;;;;5055284;28;20021;-79
2021/08/18 01:01:48;;;;;;;0.70;0.30;;;18.20;65.60;;;;;;5087385;28;20103;-79
2021/08/18 01:04:13;;;;;;;0.52;0.30;;;18.20;65.30;;;;;;5071746;28;20051;-79
2021/08/18 01:06:41;;;;;;;0.60;0.40;;;18.30;65.50;;;;;;5055101;28;20439;-79
2021/08/18 01:09:13;;;;;;;1.05;0.60;;;18.30;65.50;;;;;;5054734;28;20127;-79
2021/08/18 01:11:41;;;;;;;0.70;0.40;;;18.30;65.70;;;;;;5055119;28;20067;-79
2021/08/18 01:14:08;;;;;;;0.80;0.40;;;18.20;65.50;;;;;;5055327;28;20033;-79
2021/08/18 01:16:35;;;;;;;0.40;0.30;;;18.30;65.90;;;;;;5054853;28;20032;-79
2021/08/18 01:19:02;;;;;;;1.38;0.50;;;18.30;65.60;;;;;;5054958;28;20017;-79
2021/08/18 01:21:30;;;;;;;0.90;0.40;;;18.30;65.60;;;;;;5054639;28;20062;-79
2021/08/18 01:23:56;;;;;;;0.75;0.40;;;18.20;66.00;;;;;;5053410;28;20042;-77
2021/08/18 01:26:21;;;;;;;1.25;0.40;;;18.20;65.80;;;;;;5074452;28;20433;-79
2021/08/18 01:28:47;;;;;;;0.88;0.60;;;18.20;65.80;;;;;;5074150;28;20028;-79
2021/08/18 01:31:13;;;;;;;1.20;0.50;;;18.20;65.80;;;;;;5055150;28;20047;-78
2021/08/18 01:33:39;;;;;;;0.90;0.40;;;18.00;66.60;;;;;;5054480;28;20130;-79
2021/08/18 01:36:05;;;;;;;0.65;0.45;;;18.10;66.40;;;;;;5054647;28;20147;-80
2021/08/18 01:38:30;;;;;;;1.02;0.45;;;18.10;66.30;;;;;;5054528;28;20051;-79
2021/08/18 01:40:59;;;;;;;0.85;0.40;;;18.10;66.20;;;;;;5058544;28;20028;-79
2021/08/18 01:43:24;;;;;;;1.33;0.60;;;18.10;66.70;;;;;;5054516;28;20028;-79
2021/08/18 01:45:50;;;;;;;0.80;0.50;;;18.00;66.30;;;;;;5054311;28;20041;-79
2021/08/18 01:48:22;;;;;;;1.10;0.50;;;18.10;66.20;;;;;;5054294;28;20124;-79
2021/08/18 01:50:50;;;;;;;1.00;0.63;;;18.00;66.50;;;;;;5054458;28;20491;-80
2021/08/18 01:53:29;;;;;;;0.65;0.50;;;18.10;66.30;;;;;;5053209;28;20128;-79
2021/08/18 01:56:01;;;;;;;0.90;0.47;;;18.00;66.60;;;;;;5054136;28;20025;-79
2021/08/18 01:58:28;;;;;;;1.10;0.65;;;18.00;66.60;;;;;;5054550;28;20638;-79
2021/08/18 02:00:54;;;;;;;0.90;0.55;;;18.10;66.50;;;;;;5073013;28;20021;-80
2021/08/18 02:03:22;;;;;;;2.35;0.60;;;18.00;67.00;;;;;;5065530;28;20499;-80
2021/08/18 02:05:48;;;;;;;1.38;0.60;;;18.00;66.90;;;;;;5054485;28;20025;-80
2021/08/18 02:08:14;;;;;;;0.70;0.40;;;18.00;66.80;;;;;;5054559;28;20029;-79
2021/08/18 02:10:40;;;;;;;1.08;0.68;;;18.00;67.00;;;;;;5073553;28;20166;-80
2021/08/18 02:13:06;;;;;;;1.30;0.60;;;17.90;67.80;;;;;;5077265;28;20032;-79
2021/08/18 02:15:34;;;;;;;1.25;0.77;;;17.80;67.90;;;;;;5059982;28;20056;-79
2021/08/18 02:18:01;;;;;;;0.93;0.60;;;17.80;67.60;;;;;;5058345;28;20079;-79
2021/08/18 02:20:32;;;;;;;1.33;0.70;;;17.80;67.70;;;;;;5063135;28;20095;-80
2021/08/18 02:22:58;;;;;;;1.30;0.52;;;17.80;68.10;;;;;;5077102;28;20118;-79
2021/08/18 02:25:25;;;;;;;1.05;0.60;;;17.80;68.10;;;;;;5064103;28;20415;-79
2021/08/18 02:27:51;;;;;;;0.80;0.50;;;17.80;67.90;;;;;;5058383;28;20128;-80
2021/08/18 02:30:20;;;;;;;0.98;0.45;;;17.80;68.20;;;;;;5058293;28;20049;-79
2021/08/18 02:32:46;;;;;;;1.65;0.77;;;17.80;68.00;;;;;;5064042;28;20110;-80
2021/08/18 02:35:13;;;;;;;1.33;0.70;;;17.70;68.60;;;;;;5078100;28;20616;-80
2021/08/18 02:37:39;;;;;;;1.00;0.60;;;17.80;68.40;;;;;;5078049;28;20021;-79
2021/08/18 02:40:07;;;;;;;1.38;0.73;;;17.80;68.30;;;;;;5074981;28;20040;-79
2021/08/18 02:42:33;;;;;;;1.10;0.70;;;17.80;68.70;;;;;;5078134;28;20043;-79
2021/08/18 02:44:59;;;;;;;1.00;0.73;;;17.80;68.90;;;;;;5071960;28;20434;-79
2021/08/18 02:47:25;;;;;;;1.25;0.63;;;17.70;69.20;;;;;;5057713;28;20108;-79
2021/08/18 02:49:50;;;;;;;1.50;0.70;;;17.70;69.30;;;;;;5069579;28;20134;-79
2021/08/18 02:52:16;;;;;;;1.00;0.60;;;17.70;69.20;;;;;;5077726;28;20066;-79
2021/08/18 02:54:44;;;;;;;1.05;0.63;;;17.70;69.00;;;;;;5065919;28;20033;-79
2021/08/18 02:57:10;;;;;;;1.00;0.63;;;17.70;69.00;;;;;;5057394;28;20033;-79
2021/08/18 02:59:36;;;;;;;0.90;0.60;;;17.70;69.20;;;;;;5057720;28;20025;-79
2021/08/18 03:02:02;;;;;;;1.20;0.77;;;17.70;69.20;;;;;;5093718;28;20032;-79
2021/08/18 03:04:28;;;;;;;1.30;0.68;;;17.70;69.80;;;;;;5077838;28;20040;-79
2021/08/18 03:06:54;;;;;;;0.90;0.60;;;17.70;69.40;;;;;;5057415;28;20078;-79
2021/08/18 03:09:21;;;;;;;1.27;0.80;;;17.70;70.20;;;;;;5071769;28;20122;-79
2021/08/18 03:11:50;;;;;;;1.23;0.50;;;17.60;69.80;;;;;;5077624;28;20035;-79
2021/08/18 03:14:17;;;;;;;1.13;0.70;;;17.60;70.00;;;;;;5077593;28;20043;-79
2021/08/18 03:16:43;;;;;;;1.17;0.70;;;17.60;70.10;;;;;;5064543;28;20036;-79
2021/08/18 03:19:09;;;;;;;1.30;0.70;;;17.60;69.70;;;;;;5057252;28;20514;-79
2021/08/18 03:21:34;;;;;;;1.27;0.60;;;17.60;70.50;;;;;;5055834;28;20021;-79
2021/08/18 03:24:00;;;;;;;0.90;0.60;;;17.50;70.90;;;;;;5056987;28;20645;-79
2021/08/18 03:26:25;;;;;;;1.00;0.70;;;17.50;71.50;;;;;;5057392;28;20017;-79
2021/08/18 03:28:53;;;;;;;1.55;0.70;;;17.50;71.20;;;;;;5057031;28;20107;-79
2021/08/18 03:31:19;;;;;;;1.30;0.88;;;17.30;72.40;;;;;;5057146;28;20108;-79
2021/08/18 03:33:45;;;;;;;0.85;0.60;;;17.30;72.30;;;;;;5056811;28;20098;-79
2021/08/18 03:36:10;;;;;;;2.17;0.70;;;17.30;72.30;;;;;;5056814;28;20025;-79
2021/08/18 03:38:36;;;;;;;1.55;0.80;;;17.30;72.60;;;;;;5056864;28;20100;-79
2021/08/18 03:41:04;;;;;;;1.25;0.90;;;17.20;72.80;;;;;;5070956;28;20040;-79
2021/08/18 03:43:30;;;;;;;1.10;0.90;;;17.20;72.70;;;;;;5056635;28;20434;-79
2021/08/18 03:45:58;;;;;;;1.10;0.70;;;17.30;72.60;;;;;;5056704;28;20041;-79
2021/08/18 03:48:23;;;;;;;1.73;0.75;;;17.20;72.80;;;;;;5056561;28;20445;-79
2021/08/18 03:50:49;;;;;;;2.35;0.90;;;17.20;72.60;;;;;;5056935;28;20067;-80
2021/08/18 03:53:16;;;;;;;1.33;0.70;;;17.20;72.90;;;;;;5079496;28;20016;-79
2021/08/18 03:55:42;;;;;;;1.30;0.70;;;17.20;72.80;;;;;;5062490;28;20513;-80
2021/08/18 03:58:07;;;;;;;1.20;0.75;;;17.10;73.10;;;;;;5066414;28;20034;-80
2021/08/18 04:00:33;;;;;;;1.52;0.68;;;17.10;73.00;;;;;;5075081;28;20033;-80
2021/08/18 04:03:03;;;;;;;2.25;1.00;;;17.10;73.30;;;;;;5075032;28;20021;-79
2021/08/18 04:05:29;;;;;;;0.93;0.65;;;17.10;73.50;;;;;;5076879;28;20017;-79
2021/08/18 04:07:55;;;;;;;0.90;0.65;;;17.00;74.00;;;;;;5058886;28;20033;-79
2021/08/18 04:10:21;;;;;;;1.45;0.80;;;17.00;73.60;;;;;;5080044;28;20035;-80
2021/08/18 04:12:53;;;;;;;2.03;0.80;;;17.10;73.40;;;;;;5067092;28;20442;-79
2021/08/18 04:15:23;;;;;;;1.30;0.63;;;17.10;73.20;;;;;;5056268;28;20075;-79
2021/08/18 04:17:48;;;;;;;1.50;0.70;;;17.00;73.80;;;;;;5056314;28;20441;-79
2021/08/18 04:20:17;;;;;;;1.27;0.77;;;17.00;74.40;;;;;;5056111;28;20033;-79
2021/08/18 04:22:43;;;;;;;1.52;0.80;;;17.00;74.00;;;;;;5056466;28;20029;-79
2021/08/18 04:25:13;;;;;;;1.67;0.70;;;17.00;73.60;;;;;;5056223;28;20021;-79
2021/08/18 04:27:39;;;;;;;1.63;0.80;;;17.10;73.30;;;;;;5071316;28;20025;-79
2021/08/18 04:30:08;;;;;;;1.15;0.85;;;17.20;72.80;;;;;;5060358;28;20024;-80
2021/08/18 04:32:33;;;;;;;1.38;0.70;;;17.10;73.10;;;;;;5075348;28;20028;-79
2021/08/18 04:34:59;;;;;;;2.75;0.70;;;17.20;72.90;;;;;;5069656;28;20502;-79
2021/08/18 04:37:25;;;;;;;0.85;0.60;;;17.10;72.70;;;;;;5055907;28;20048;-80
2021/08/18 04:39:50;;;;;;;1.35;0.80;;;17.20;72.50;;;;;;5061111;28;20024;-79
2021/08/18 04:42:16;;;;;;;2.25;1.00;;;17.20;72.20;;;;;;5075700;28;20136;-79
2021/08/18 04:44:42;;;;;;;0.98;0.70;;;17.20;71.90;;;;;;5075528;28;20473;-80
2021/08/18 04:47:07;;;;;;;1.13;0.63;;;17.20;72.10;;;;;;5089470;28;20035;-79
2021/08/18 04:49:33;;;;;;;1.05;0.80;;;17.20;71.80;;;;;;5082531;28;20039;-79
2021/08/18 04:51:59;;;;;;;1.30;0.75;;;17.30;71.60;;;;;;5074131;28;20120;-80
2021/08/18 04:54:27;;;;;;;1.55;0.80;;;17.30;71.40;;;;;;5075730;28;20028;-80
2021/08/18 04:56:52;;;;;;;1.00;0.73;;;17.30;71.00;;;;;;5071684;28;20025;-79
2021/08/18 04:59:18;;;;;;;1.52;0.80;;;17.30;70.80;;;;;;5055464;28;20029;-79
2021/08/18 05:01:44;;;;;;;1.20;0.90;;;17.30;71.10;;;;;;5055274;28;20089;-79
2021/08/18 05:04:09;;;;;;;1.25;0.70;;;17.20;71.50;;;;;;5055231;28;20079;-79
2021/08/18 05:06:35;;;;;;;1.42;0.80;;;17.20;71.40;;;;;;5055414;28;20114;-79
2021/08/18 05:09:01;;;;;;;1.45;0.73;;;17.20;71.70;;;;;;5055304;28;20542;-79
2021/08/18 05:11:30;;;;;;;1.95;0.77;;;17.20;71.50;;;;;;5055045;28;20854;-79
2021/08/18 05:13:55;;;;;;;1.52;0.80;;;17.30;71.30;;;;;;5055160;28;20488;-79
2021/08/18 05:16:21;;;;;;;1.10;0.73;;;17.30;71.50;;;;;;5070716;28;20047;-79
2021/08/18 05:18:47;;;;;;;1.40;0.70;;;17.20;72.10;;;;;;5054788;28;20442;-79
2021/08/18 05:21:12;;;;;;;1.27;0.90;;;17.10;72.40;;;;;;5055182;28;20029;-80
2021/08/18 05:23:38;;;;;;;2.75;0.90;;;17.10;72.20;;;;;;5055175;28;20021;-79
2021/08/18 05:26:04;;;;;;;1.60;0.70;;;17.10;72.10;;;;;;5055095;28;20064;-79
2021/08/18 05:28:29;;;;;;;1.05;0.73;;;17.20;72.20;;;;;;5054977;28;20028;-79
2021/08/18 05:30:55;;;;;;;1.70;0.85;;;17.00;72.70;;;;;;5054934;28;20021;-80
2021/08/18 05:33:21;;;;;;;1.35;0.77;;;17.00;72.80;;;;;;5055594;28;20551;-79
2021/08/18 05:35:47;;;;;;;1.42;0.80;;;17.00;72.40;;;;;;5060000;28;20133;-78
2021/08/18 05:38:12;;;;;;;1.45;0.80;;;17.00;72.70;;;;;;5074868;28;20029;-79
2021/08/18 05:40:38;;;;;;;0.98;0.70;;;17.00;72.50;;;;;;5070211;28;20135;-80
2021/08/18 05:43:04;;;;;;;1.00;0.70;;;17.00;72.40;;;;;;5056739;28;20506;-79
2021/08/18 05:45:29;;;;;;;2.60;0.88;;;17.00;72.40;;;;;;5066789;28;20080;-80
2021/08/18 05:47:55;;;;;;;2.10;0.90;;;17.10;72.40;;;;;;5094890;28;20473;-79
2021/08/18 05:50:21;;;;;;;1.13;0.80;;;17.10;72.10;;;;;;5094655;28;20609;-79
2021/08/18 05:52:47;;;;;;;1.40;0.80;;;17.20;71.50;;;;;;5076165;28;20025;-80
2021/08/18 05:55:12;;;;;;;1.38;0.75;;;17.20;71.90;;;;;;5054727;28;20102;-80
2021/08/18 05:57:38;;;;;;;1.60;0.82;;;17.20;71.60;;;;;;5056851;28;20025;-79
2021/08/18 06:00:05;;;;;;;1.55;0.77;;;17.20;71.60;;;;;;5063938;28;20025;-79
2021/08/18 06:02:31;;;;;;;1.20;0.70;;;17.20;72.00;;;;;;5063187;28;20070;-79
2021/08/18 06:04:56;;;;;;;0.98;0.60;;;17.10;72.10;;;;;;5065261;28;20032;-80
2021/08/18 06:07:22;;;;;;;1.17;0.73;;;17.10;71.90;;;;;;5057146;28;20029;-83
2021/08/18 06:09:48;;;;;;;2.05;0.85;;;17.10;72.00;;;;;;5065319;28;20058;-83
2021/08/18 06:12:13;;;;;;;1.50;0.80;;;17.20;71.40;;;;;;5064029;28;20096;-85
2021/08/18 06:14:39;;;;;;;1.92;1.00;;;17.30;71.10;;;;;;5065819;28;20118;-86
2021/08/18 06:17:05;;;;;;;0.90;0.73;;;17.40;70.70;;;;;;5074324;28;20031;-87
2021/08/18 06:19:30;;;;;;;2.22;0.88;;;17.40;71.00;;;;;;5074930;28;20055;-87
2021/08/18 06:21:59;;;;;;;1.52;0.70;;;17.40;70.80;;;;;;5074975;28;20021;-89
2021/08/18 06:24:41;;;;;;;1.45;0.70;;;17.50;70.80;;;;;;5057083;28;20064;-92
2021/08/18 06:27:12;;;;;;;1.50;0.70;;;17.40;70.80;;;;;;5053686;28;20029;-89
2021/08/18 06:29:38;;;;;;;1.35;0.70;;;17.40;70.60;;;;;;5055161;28;20136;-83
2021/08/18 06:32:05;;;;;;;1.45;0.70;;;17.40;70.70;;;;;;5054520;28;20798;-92
2021/08/18 06:34:31;;;;;;;1.38;0.70;;;17.50;70.40;;;;;;5052743;28;20375;-79
2021/08/18 06:37:01;;;;;;;1.00;0.65;;;17.50;70.60;;;;;;5054288;28;20029;-84
2021/08/18 06:39:32;;;;;;;1.73;0.82;;;17.50;70.50;;;;;;5066988;28;20028;-81
2021/08/18 06:41:59;;;;;;;1.20;0.80;;;17.50;70.50;;;;;;5063075;28;20021;-85
2021/08/18 06:44:25;;;;;;;1.17;0.65;;;17.40;70.80;;;;;;5065897;28;20079;-90
2021/08/18 06:46:50;;;;;;;1.23;0.75;;;17.30;70.90;;;;;;5065913;28;20057;-78
2021/08/18 06:49:16;;;;;;;1.10;0.70;;;17.40;70.60;;;;;;5054883;28;20049;-82
2021/08/18 06:51:42;;;;;;;1.00;0.73;;;17.50;70.40;;;;;;5056536;28;20025;-80
2021/08/18 06:54:10;;;;;;;1.25;0.75;;;17.60;70.30;;;;;;5060455;28;20060;-81
2021/08/18 06:56:35;;;;;;;2.03;0.70;;;17.60;70.10;;;;;;5063979;28;20017;-82
2021/08/18 06:59:01;;;;;;;1.23;0.80;;;17.70;69.90;;;;;;5070145;28;20023;-84
2021/08/18 07:01:26;;;;;;;1.58;0.73;;;17.70;69.50;;;;;;5057575;28;20025;-83
2021/08/18 07:03:52;;;;;;;1.13;0.68;;;17.90;69.10;;;;;;5062642;28;20426;-84
2021/08/18 07:06:18;;;;;;;1.17;0.80;;;17.90;68.80;;;;;;5072747;28;20025;-83
2021/08/18 07:08:44;;;;;;;1.70;0.60;;;17.90;68.90;;;;;;5061807;28;20032;-83
2021/08/18 07:11:10;;;;;;;0.80;0.50;;;17.90;68.80;;;;;;5076902;28;20070;-83
2021/08/18 07:13:35;;;;;;;1.17;0.55;;;17.80;68.50;;;;;;5077741;28;20047;-82
2021/08/18 07:16:01;;;;;;;0.80;0.50;;;17.90;68.60;;;;;;5074459;28;20094;-83
2021/08/18 07:18:27;;;;;;;1.83;0.63;;;18.00;68.30;;;;;;5063246;28;20031;-84
2021/08/18 07:20:52;;;;;;;1.17;0.65;;;18.00;68.00;;;;;;5064968;28;20017;-85
2021/08/18 07:23:18;;;;;;;0.93;0.60;;;18.00;68.00;;;;;;5068107;28;20031;-83
2021/08/18 07:25:44;;;;;;;1.27;0.75;;;18.10;68.00;;;;;;5066294;28;20467;-83
2021/08/18 07:28:10;;;;;;;3.20;0.60;;;18.10;67.80;;;;;;5061216;28;20505;-83
2021/08/18 07:30:36;;;;;;;1.65;0.73;;;18.10;68.20;;;;;;5065661;28;20712;-82
2021/08/18 07:33:01;;;;;;;0.85;0.60;;;18.10;68.20;;;;;;5070973;28;20071;-82
2021/08/18 07:35:27;;;;;;;1.05;0.50;;;18.20;67.90;;;;;;5076696;28;20056;-83
2021/08/18 07:37:53;;;;;;;1.02;0.55;;;18.30;67.30;;;;;;5070680;28;20029;-86
2021/08/18 07:40:18;;;;;;;0.80;0.50;;;18.50;67.00;;;;;;5060100;28;20028;-81
2021/08/18 07:42:44;;;;;;;1.77;0.68;;;18.60;66.50;;;;;;5075639;28;20020;-86
2021/08/18 07:45:11;;;;;;;1.23;0.65;;;18.70;66.00;;;;;;5075539;28;20415;-83
2021/08/18 07:47:37;;;;;;;1.33;0.60;;;18.80;65.90;;;;;;5064699;28;20056;-82
2021/08/18 07:50:04;;;;;;;1.38;0.60;;;18.80;66.00;;;;;;5062935;28;20029;-83
2021/08/18 07:52:30;;;;;;;2.53;0.60;;;18.70;66.00;;;;;;5056214;28;20021;-87
2021/08/18 07:54:55;;;;;;;0.77;0.50;;;18.60;66.20;;;;;;5055225;28;20044;-86
2021/08/18 07:57:21;;;;;;;1.17;0.70;;;18.80;65.60;;;;;;5055901;28;20041;-87
2021/08/18 07:59:50;;;;;;;1.30;0.60;;;18.70;65.80;;;;;;5056137;28;20111;-84
2021/08/18 08:02:20;;;;;;;1.70;0.65;;;18.80;65.70;;;;;;5054920;28;20052;-83
2021/08/18 08:04:47;;;;;;;0.98;0.70;;;18.90;65.10;;;;;;5054258;28;20033;-82
2021/08/18 08:07:14;;;;;;;1.50;0.60;;;19.00;64.90;;;;;;5055849;28;20111;-85
2021/08/18 08:09:40;;;;;;;0.75;0.50;;;19.20;64.30;;;;;;5071284;28;20058;-85
2021/08/18 08:12:05;;;;;;;1.05;0.60;;;19.30;64.10;;;;;;5076562;28;20028;-90
2021/08/18 08:14:31;;;;;;;0.70;0.40;;;19.40;64.00;;;;;;5074806;28;20069;-82
2021/08/18 08:16:57;;;;;;;0.80;0.50;;;19.30;63.50;;;;;;5057946;28;20560;-85
2021/08/18 08:19:22;;;;;;;1.25;0.70;;;19.50;63.50;;;;;;5056036;28;20392;-82
2021/08/18 08:21:51;;;;;;;0.80;0.50;;;19.50;63.20;;;;;;5056323;28;20933;-84
2021/08/18 08:24:16;;;;;;;1.75;0.80;;;19.70;62.90;;;;;;5054395;28;20434;-86
2021/08/18 08:26:42;;;;;;;0.95;0.50;;;19.70;62.30;;;;;;5054847;28;20044;-84
2021/08/18 08:29:09;;;;;;;0.98;0.52;;;19.80;62.50;;;;;;5054830;28;20112;-84
2021/08/18 08:31:35;;;;;;;1.20;0.65;;;19.90;62.40;;;;;;5054785;28;20067;-85
2021/08/18 08:34:01;;;;;;;0.65;0.45;;;20.10;61.40;;;;;;5058534;28;20083;-83
2021/08/18 08:36:27;;;;;;;1.10;0.52;;;20.10;61.40;;;;;;5059033;28;20025;-82
2021/08/18 08:38:52;;;;;;;1.67;0.60;;;20.10;60.80;;;;;;5060098;28;20070;-80
2021/08/18 08:41:19;;;;;;;0.95;0.55;;;19.90;61.50;;;;;;5074011;28;20032;-80
2021/08/18 08:43:45;;;;;;;1.65;0.60;;;19.90;61.80;;;;;;5061544;28;20027;-81
2021/08/18 08:46:11;;;;;;;0.90;0.52;;;19.90;61.50;;;;;;5067363;28;20037;-79
2021/08/18 08:48:41;;;;;;;1.10;0.60;;;19.80;62.30;;;;;;5071897;28;20030;-80
2021/08/18 08:51:08;;;;;;;1.17;0.50;;;20.00;62.50;;;;;;5074597;28;20059;-81
2021/08/18 08:53:35;;;;;;;2.17;0.75;;;20.10;61.90;;;;;;5059622;28;20640;-81
2021/08/18 08:56:01;;;;;;;1.42;0.50;;;20.00;61.20;;;;;;5071997;28;20070;-81
2021/08/18 08:58:29;;;;;;;0.77;0.47;;;20.10;61.10;;;;;;5066590;28;20363;-81
2021/08/18 09:00:55;;;;;;;1.10;0.63;;;19.90;61.60;;;;;;5073882;28;20032;-81
2021/08/18 09:03:25;;;;;;;0.90;0.50;;;20.10;61.50;;;;;;5067232;28;20025;-80
2021/08/18 09:05:52;;;;;;;;;;;20.30;61.60;;;;;;5070421;28;20042;-81
2021/08/18 09:08:21;;;;;;;1.20;0.60;;;20.30;61.20;;;;;;5071604;28;19908;-81
2021/08/18 09:11:13;;;;;;;1.45;0.70;;;20.30;60.50;;;;;;5069780;28;20021;-82
2021/08/18 09:13:49;;;;;;;0.75;0.40;;;20.10;60.90;;;;;;5072863;28;20692;-83
2021/08/18 09:16:17;;;;;;;1.05;0.60;;;20.20;60.50;;;;;;5063867;28;20028;-87
2021/08/18 09:18:50;;;;;;;1.45;0.80;;;20.20;60.90;;;;;;5063493;28;20025;-78
2021/08/18 09:21:38;;;;;;;1.25;0.70;;;20.10;61.60;;;;;;5065339;28;20029;-78
2021/08/18 09:24:16;;;;;;;1.00;0.47;;;19.90;61.40;;;;;;5053401;28;20419;-78
2021/08/18 09:26:48;;;;;;;1.13;0.60;;;20.00;60.80;;;;;;5075091;28;20021;-79
2021/08/18 09:29:24;;;;;;;1.25;0.52;;;20.00;61.40;;;;;;5074944;28;20021;-78
2021/08/18 09:31:50;;;;;;;0.85;0.60;;;20.20;60.30;;;;;;5070536;28;20025;-78
2021/08/18 09:34:16;;;;;;;0.95;0.50;;;20.30;59.80;;;;;;5053922;28;20036;-78
2021/08/18 09:36:41;;;;;;;1.27;0.60;;;20.40;60.30;;;;;;5057115;28;20047;-78
2021/08/18 09:39:25;;;;;;;0.85;0.63;;;20.50;59.40;;;;;;5076586;28;20494;-78
2021/08/18 09:41:52;;;;;;;1.20;0.60;;;20.60;59.60;;;;;;5074630;28;20017;-78
2021/08/18 09:44:21;;;;;;;1.40;0.52;;;20.70;59.70;;;;;;5074857;28;20048;-78
2021/08/18 09:47:04;;;;;;;2.15;0.50;;;20.80;59.00;;;;;;5074694;28;20230;-78
2021/08/18 09:49:33;;;;;;;1.38;0.65;;;20.70;59.70;;;;;;5074599;28;20503;-78
2021/08/18 09:51:59;;;;;;;1.98;0.55;;;20.50;59.70;;;;;;5072616;28;20096;-78
2021/08/18 09:54:36;;;;;;;1.45;0.60;;;20.70;59.50;;;;;;5074572;28;20021;-78
2021/08/18 09:57:07;;;;;;;1.90;0.60;;;20.60;59.50;;;;;;5054360;28;20033;-79
2021/08/18 09:59:33;;;;;;;1.20;0.70;;;20.50;59.80;;;;;;5054472;28;20025;-78
2021/08/18 10:01:59;;;;;;;1.10;0.40;;;20.50;59.60;;;;;;5054391;28;20563;-78
2021/08/18 10:04:25;;;;;;;1.38;0.43;;;20.50;59.20;;;;;;5054434;28;20096;-78
2021/08/18 10:06:52;;;;;;;1.40;0.75;;;20.50;59.90;;;;;;5054233;28;20085;-78
2021/08/18 10:09:17;;;;;;;1.33;0.50;;;20.60;59.90;;;;;;5054391;28;20025;-78
2021/08/18 10:11:43;;;;;;;1.95;0.50;;;20.60;59.90;;;;;;5054390;28;20044;-78
2021/08/18 10:14:09;;;;;;;1.08;0.70;;;20.80;59.30;;;;;;5054299;28;20471;-78
2021/08/18 10:16:35;;;;;;;1.63;0.70;;;20.90;59.60;;;;;;5054520;28;20071;-79
2021/08/18 10:19:06;;;;;;;1.05;0.60;;;20.80;59.30;;;;;;5054568;28;20029;-78
2021/08/18 10:21:33;;;;;;;0.95;0.45;;;20.80;58.60;;;;;;5053109;28;20028;-78
2021/08/18 10:24:07;;;;;;;1.10;0.70;;;20.80;58.60;;;;;;5054048;28;20025;-79
2021/08/18 10:26:36;;;;;;;1.15;0.55;;;20.80;59.40;;;;;;5054105;28;20082;-78
2021/08/18 10:29:13;;;;;;;1.38;0.60;;;20.80;58.80;;;;;;5053974;28;20040;-78
2021/08/18 10:31:45;;;;;;;1.02;0.60;;;20.80;59.00;;;;;;5065505;28;20016;-78
2021/08/18 10:34:23;;;;;;;1.58;0.77;;;21.00;58.00;;;;;;5087125;28;20029;-78
2021/08/18 10:36:52;;;;;;;1.30;0.60;;;21.30;58.50;;;;;;5058123;28;20068;-78
2021/08/18 10:39:18;;;;;;;1.60;0.60;;;21.40;57.80;;;;;;5075824;28;20071;-78
2021/08/18 10:42:11;;;;;;;0.88;0.40;;;21.30;57.00;;;;;;5076443;28;20025;-78
2021/08/18 10:44:51;;;;;;;1.02;0.60;;;21.30;57.20;;;;;;5077799;28;20048;-78
2021/08/18 10:47:22;;;;;;;1.15;0.63;;;21.40;58.00;;;;;;5060264;28;20445;-78
2021/08/18 10:50:18;;;;;;;0.88;0.50;;;21.30;57.50;;;;;;5057943;28;20039;-78
2021/08/18 10:52:44;;;;;;;1.40;0.70;;;21.20;57.50;;;;;;5057329;28;20028;-78
2021/08/18 10:55:24;;;;;;;0.88;0.50;;;21.40;57.80;;;;;;5057877;28;20086;-78
2021/08/18 10:57:55;;;;;;;0.90;0.50;;;21.30;57.50;;;;;;5072839;28;20036;-78
2021/08/18 11:00:41;;;;;;;0.95;0.43;;;21.20;56.70;;;;;;5057551;28;20475;-78
2021/08/18 11:03:08;;;;;;;1.55;0.70;;;21.10;58.20;;;;;;5057504;28;20035;-78
2021/08/18 11:05:39;;;;;;;1.00;0.68;;;21.10;58.40;;;;;;5057523;28;20932;-78
2021/08/18 11:08:08;;;;;;;1.40;0.65;;;21.30;57.30;;;;;;5070808;28;20086;-78
2021/08/18 11:10:57;;;;;;;0.88;0.50;;;21.30;57.80;;;;;;5075986;28;20067;-78
2021/08/18 11:13:35;;;;;;;0.80;0.50;;;21.40;57.30;;;;;;5053408;28;20041;-78
2021/08/18 11:16:08;;;;;;;1.40;0.70;;;21.20;57.70;;;;;;5057297;28;20033;-78
2021/08/18 11:18:35;;;;;;;1.83;0.60;;;21.10;57.30;;;;;;5073923;28;20085;-78
2021/08/18 11:21:01;;;;;;;2.17;0.57;;;21.30;57.40;;;;;;5067663;28;20025;-78
2021/08/18 11:23:29;;;;;;;1.25;0.77;;;21.20;57.60;;;;;;5057315;28;20036;-78
2021/08/18 11:26:00;;;;;;;1.65;0.93;;;21.30;56.80;;;;;;5056979;28;20028;-78
2021/08/18 11:28:28;;;;;;;1.00;0.60;;;21.10;57.00;;;;;;5057042;28;20082;-78
2021/08/18 11:30:59;;;;;;;1.60;0.70;;;21.00;57.30;;;;;;5070456;28;20040;-78
2021/08/18 11:33:26;;;;;;;1.20;0.77;;;20.90;57.20;;;;;;5096062;28;20031;-78
2021/08/18 11:35:52;;;;;;;1.17;0.70;;;21.00;57.70;;;;;;5097229;28;20024;-78
2021/08/18 11:38:18;;;;;;;1.52;0.80;;;21.20;57.20;;;;;;5084591;28;20522;-78
2021/08/18 11:40:48;;;;;;;1.92;0.85;;;21.30;56.50;;;;;;5063955;28;20032;-78
2021/08/18 11:43:14;;;;;;;1.90;0.73;;;21.70;56.50;;;;;;5074352;28;20020;-78
2021/08/18 11:45:39;;;;;;;0.98;0.60;;;21.70;56.20;;;;;;5075637;28;20062;-78
2021/08/18 11:48:10;;;;;;;1.15;0.70;;;21.80;55.40;;;;;;5071990;28;20087;-78
2021/08/18 11:50:38;;;;;;;1.55;0.95;;;21.70;55.20;;;;;;5057537;28;20055;-78
2021/08/18 11:53:07;;;;;;;1.95;0.80;;;21.60;55.60;;;;;;5056073;28;20100;-78
2021/08/18 11:55:35;;;;;;;1.85;0.60;;;21.60;55.50;;;;;;5057259;28;20054;-78
2021/08/18 11:58:04;;;;;;;1.00;0.60;;;21.50;56.20;;;;;;5056835;28;20036;-78
2021/08/18 12:00:31;;;;;;;1.35;0.90;;;21.50;57.10;;;;;;5056901;28;20033;-79
2021/08/18 12:02:58;;;;;;;1.45;0.80;;;21.40;57.20;;;;;;5057022;28;20028;-78
2021/08/18 12:05:32;;;;;;;1.40;0.70;;;21.60;56.80;;;;;;5056798;28;20029;-78
2021/08/18 12:08:09;;;;;;;1.95;0.90;;;21.40;56.60;;;;;;5056898;28;20040;-78
2021/08/18 12:10:40;;;;;;;1.05;0.63;;;21.70;56.90;;;;;;5057007;28;20039;-77
2021/08/18 12:13:13;;;;;;;1.00;0.70;;;21.80;55.30;;;;;;5056630;28;20032;-77
2021/08/18 12:15:42;;;;;;;1.13;0.70;;;22.10;54.80;;;;;;5056849;28;20087;-77
2021/08/18 12:18:31;;;;;;;1.27;0.70;;;22.20;54.60;;;;;;5056562;28;20025;-77
2021/08/18 12:21:15;;;;;;;1.58;0.95;;;21.90;55.70;;;;;;5056886;28;20017;-77
2021/08/18 12:23:41;;;;;;;1.30;0.70;;;21.90;55.00;;;;;;5071927;28;20025;-77
2021/08/18 12:26:29;;;;;;;1.00;0.52;;;21.90;55.10;;;;;;5057090;28;20021;-77
2021/08/18 12:28:56;;;;;;;0.80;0.52;;;21.80;55.40;;;;;;5056469;28;20032;-77
2021/08/18 12:31:22;;;;;;;1.10;0.60;;;21.90;55.00;;;;;;5061426;28;20028;-77
2021/08/18 12:34:09;;;;;;;1.50;0.80;;;22.10;54.50;;;;;;5072019;28;20033;-77
2021/08/18 12:36:36;;;;;;;0.90;0.60;;;22.30;54.20;;;;;;5056292;28;20096;-77
2021/08/18 12:39:05;;;;;;;1.63;0.80;;;22.40;53.50;;;;;;5056472;28;20029;-77
2021/08/18 12:41:33;;;;;;;1.27;0.75;;;22.30;53.50;;;;;;5069650;28;20024;-77
2021/08/18 12:44:12;;;;;;;1.00;0.60;;;22.10;54.10;;;;;;5075967;28;20032;-77
2021/08/18 12:46:43;;;;;;;1.88;0.77;;;21.90;55.80;;;;;;5074786;28;20016;-78
2021/08/18 12:49:48;;;;;;;1.02;0.65;;;21.80;55.70;;;;;;5074948;28;20039;-77
2021/08/18 12:52:16;;;;;;;1.33;0.80;;;22.00;55.30;;;;;;4994599;28;20105;-77